Time;durP1;ratioP1;P1;durP2;ratioP2;P2;SDS_P1;SDS_P2;PMS_P1;PMS_P2;Temp;Humidity;BMP_temperature;BMP_pressure;BME280_temperature;BME280_humidity;BME280_pressure;Samples;Min_cycle;Max_cycle;Signal;HPM_P1;HPM_P2
2023/06/03 00:03:20;;;;;;;8.63;4.10;;;;;;;;;;4961036;29;20392;-73
2023/06/03 00:05:46;;;;;;;8.10;4.40;;;;;;;;;;4962551;29;20421;-73
2023/06/03 00:08:12;;;;;;;6.00;4.70;;;;;;;;;;4962112;29;20476;-73
2023/06/03 00:10:38;;;;;;;14.07;5.30;;;;;;;;;;4961165;29;20578;-73
2023/06/03 00:13:05;;;;;;;5.23;4.23;;;;;;;;;;4961166;29;20400;-73
2023/06/03 00:15:31;;;;;;;5.33;2.90;;;;;;;;;;4960873;29;20522;-73
2023/06/03 00:17:57;;;;;;;6.97;4.30;;;;;;;;;;4961903;29;20889;-73
2023/06/03 00:20:25;;;;;;;5.40;3.23;;;;;;;;;;4961410;29;20871;-73
2023/06/03 00:22:51;;;;;;;5.47;3.20;;;;;;;;;;4962116;29;20388;-73
2023/06/03 00:25:17;;;;;;;3.83;3.33;;;;;;;;;;4961963;29;20451;-73
2023/06/03 00:27:43;;;;;;;11.20;3.73;;;;;;;;;;4961282;29;20620;-73
2023/06/03 00:30:10;;;;;;;9.50;3.33;;;;;;;;;;4961849;29;20395;-73
2023/06/03 00:32:36;;;;;;;7.10;3.57;;;;;;;;;;4961517;29;20448;-73
2023/06/03 00:35:02;;;;;;;6.13;2.60;;;;;;;;;;4961089;29;20413;-73
2023/06/03 00:37:28;;;;;;;8.50;3.33;;;;;;;;;;4961027;29;20417;-73
2023/06/03 00:39:54;;;;;;;10.57;3.20;;;;;;;;;;4960869;29;20403;-73
2023/06/03 00:42:20;;;;;;;7.87;3.60;;;;;;;;;;4960815;29;20452;-73
2023/06/03 00:44:46;;;;;;;8.60;3.00;;;;;;;;;;4958874;28;20443;-73
2023/06/03 00:47:12;;;;;;;6.50;3.40;;;;;;;;;;4961130;29;20408;-73
2023/06/03 00:49:38;;;;;;;6.30;3.77;;;;;;;;;;4960885;29;20788;-73
2023/06/03 00:52:05;;;;;;;8.40;3.27;;;;;;;;;;4961043;29;20398;-73
2023/06/03 00:54:33;;;;;;;6.43;3.60;;;;;;;;;;4960610;29;20455;-73
2023/06/03 00:56:59;;;;;;;4.70;3.37;;;;;;;;;;4960574;29;20490;-73
2023/06/03 00:59:25;;;;;;;5.13;3.23;;;;;;;;;;4960825;29;20486;-73
2023/06/03 01:01:51;;;;;;;14.33;3.77;;;;;;;;;;4960409;29;20415;-73
2023/06/03 01:04:25;;;;;;;8.97;3.10;;;;;;;;;;4961548;29;20409;-73
2023/06/03 01:07:00;;;;;;;4.97;3.30;;;;;;;;;;4960662;29;20384;-73
2023/06/03 01:09:32;;;;;;;6.40;3.67;;;;;;;;;;4960518;29;20378;-74
2023/06/03 01:12:01;;;;;;;5.53;3.23;;;;;;;;;;4961448;29;20448;-73
2023/06/03 01:14:42;;;;;;;6.23;4.10;;;;;;;;;;4960565;29;20401;-73
2023/06/03 01:17:09;;;;;;;9.23;3.57;;;;;;;;;;4960406;29;20463;-73
2023/06/03 01:19:49;;;;;;;10.83;2.77;;;;;;;;;;4960226;29;20731;-73
2023/06/03 01:22:28;;;;;;;4.87;3.20;;;;;;;;;;4960690;29;20387;-73
2023/06/03 01:25:08;;;;;;;11.77;3.60;;;;;;;;;;4960552;29;20456;-73
2023/06/03 01:27:34;;;;;;;4.83;3.00;;;;;;;;;;4960245;29;20408;-73
2023/06/03 01:30:00;;;;;;;17.77;3.23;;;;;;;;;;4960193;29;20383;-73
2023/06/03 01:32:27;;;;;;;10.23;3.27;;;;;;;;;;4959606;29;20433;-73
2023/06/03 01:34:53;;;;;;;8.63;3.47;;;;;;;;;;4960640;29;20383;-73
2023/06/03 01:37:20;;;;;;;9.53;3.13;;;;;;;;;;4960503;29;20451;-73
2023/06/03 01:39:47;;;;;;;9.80;3.30;;;;;;;;;;4960210;29;20551;-73
2023/06/03 01:42:13;;;;;;;4.23;3.07;;;;;;;;;;4959647;29;20420;-73
2023/06/03 01:44:39;;;;;;;8.63;4.13;;;;;;;;;;4958998;29;20770;-73
2023/06/03 01:47:05;;;;;;;6.97;3.70;;;;;;;;;;4959670;29;20395;-73
2023/06/03 01:49:31;;;;;;;9.40;3.70;;;;;;;;;;4958493;29;20411;-73
2023/06/03 01:52:02;;;;;;;4.57;3.20;;;;;;;;;;4959928;29;20408;-73
2023/06/03 01:54:28;;;;;;;5.43;3.80;;;;;;;;;;4959207;28;20412;-73
2023/06/03 01:56:55;;;;;;;5.47;3.70;;;;;;;;;;4959353;29;20472;-73
2023/06/03 01:59:23;;;;;;;6.13;3.90;;;;;;;;;;4960730;29;21032;-73
2023/06/03 02:01:50;;;;;;;6.57;3.37;;;;;;;;;;4959572;29;20427;-73
2023/06/03 02:04:16;;;;;;;7.47;4.03;;;;;;;;;;4959843;29;20478;-73
2023/06/03 02:06:42;;;;;;;10.83;4.37;;;;;;;;;;4959274;29;20409;-73
2023/06/03 02:09:10;;;;;;;5.70;3.00;;;;;;;;;;4959840;29;20491;-72
2023/06/03 02:11:36;;;;;;;9.40;5.03;;;;;;;;;;4959415;29;20416;-73
2023/06/03 02:14:02;;;;;;;8.90;4.10;;;;;;;;;;4959106;29;20395;-73
2023/06/03 02:16:28;;;;;;;6.40;3.30;;;;;;;;;;4959096;29;20495;-73
2023/06/03 02:18:54;;;;;;;4.17;3.70;;;;;;;;;;4959230;29;20412;-73
2023/06/03 02:21:20;;;;;;;8.77;3.87;;;;;;;;;;4958927;29;20412;-73
2023/06/03 02:23:46;;;;;;;6.03;3.70;;;;;;;;;;4959017;29;20388;-73
2023/06/03 02:26:13;;;;;;;10.87;3.40;;;;;;;;;;4958876;29;20454;-72
2023/06/03 02:28:39;;;;;;;6.93;3.70;;;;;;;;;;4958798;29;20398;-73
2023/06/03 02:31:05;;;;;;;10.27;3.77;;;;;;;;;;4959344;29;20883;-73
2023/06/03 02:33:31;;;;;;;7.53;3.97;;;;;;;;;;4958669;29;20390;-73
2023/06/03 02:35:57;;;;;;;7.33;4.53;;;;;;;;;;4959168;29;20443;-72
2023/06/03 02:38:23;;;;;;;7.20;3.80;;;;;;;;;;4959095;29;20796;-73
2023/06/03 02:40:49;;;;;;;4.40;4.00;;;;;;;;;;4941458;29;20399;-73
2023/06/03 02:43:15;;;;;;;8.40;3.97;;;;;;;;;;4958551;29;20416;-73
2023/06/03 02:45:41;;;;;;;8.20;3.67;;;;;;;;;;4959212;29;20425;-73
2023/06/03 02:48:07;;;;;;;11.20;4.10;;;;;;;;;;4958774;29;20387;-72
2023/06/03 02:50:33;;;;;;;8.93;4.17;;;;;;;;;;4958786;29;20803;-73
2023/06/03 02:53:00;;;;;;;8.97;6.20;;;;;;;;;;4958929;29;20387;-73
2023/06/03 02:55:27;;;;;;;7.07;4.30;;;;;;;;;;4957112;28;20464;-75
2023/06/03 02:57:53;;;;;;;6.53;3.40;;;;;;;;;;4959188;29;20741;-72
2023/06/03 03:00:19;;;;;;;9.23;4.87;;;;;;;;;;4959343;29;20402;-73
2023/06/03 03:02:45;;;;;;;7.50;4.13;;;;;;;;;;4958736;29;20469;-72
2023/06/03 03:05:11;;;;;;;7.93;4.20;;;;;;;;;;4958547;29;20391;-72
2023/06/03 03:07:37;;;;;;;7.00;4.03;;;;;;;;;;4960855;28;20416;-73
2023/06/03 03:10:04;;;;;;;7.70;3.33;;;;;;;;;;4963097;29;20487;-72
2023/06/03 03:12:30;;;;;;;8.67;3.20;;;;;;;;;;4962997;29;20412;-73
2023/06/03 03:14:56;;;;;;;6.83;3.60;;;;;;;;;;4962903;29;20497;-72
2023/06/03 03:17:22;;;;;;;7.03;3.00;;;;;;;;;;4962762;29;20483;-72
2023/06/03 03:19:48;;;;;;;8.33;3.10;;;;;;;;;;4962567;29;20391;-73
2023/06/03 03:22:14;;;;;;;6.83;3.20;;;;;;;;;;4962905;29;20440;-73
2023/06/03 03:24:42;;;;;;;6.53;3.53;;;;;;;;;;4962369;29;20775;-73
2023/06/03 03:27:08;;;;;;;5.53;3.23;;;;;;;;;;4962539;29;20413;-73
2023/06/03 03:29:34;;;;;;;3.53;3.10;;;;;;;;;;4962814;29;20390;-73
2023/06/03 03:32:05;;;;;;;6.90;2.97;;;;;;;;;;4962469;29;20412;-72
2023/06/03 03:34:31;;;;;;;7.63;3.73;;;;;;;;;;4962664;29;20404;-72
2023/06/03 03:36:57;;;;;;;5.47;2.80;;;;;;;;;;4963004;29;20438;-73
2023/06/03 03:39:23;;;;;;;7.00;3.93;;;;;;;;;;4962447;29;20445;-73
2023/06/03 03:41:49;;;;;;;7.70;3.00;;;;;;;;;;4962112;29;20839;-73
2023/06/03 03:44:15;;;;;;;5.23;2.67;;;;;;;;;;4962756;29;20916;-73
2023/06/03 03:46:47;;;;;;;7.50;3.30;;;;;;;;;;4962339;29;20496;-73
2023/06/03 03:49:16;;;;;;;7.07;3.17;;;;;;;;;;4962597;29;20712;-73
2023/06/03 03:51:42;;;;;;;11.13;3.60;;;;;;;;;;4962293;29;20542;-73
2023/06/03 03:54:08;;;;;;;8.60;2.67;;;;;;;;;;4962265;29;20412;-72
2023/06/03 03:56:34;;;;;;;4.93;3.13;;;;;;;;;;4962439;29;20446;-73
2023/06/03 03:59:00;;;;;;;4.33;2.70;;;;;;;;;;4961945;29;20392;-72
2023/06/03 04:01:28;;;;;;;4.73;2.63;;;;;;;;;;4962111;29;20526;-73
2023/06/03 04:03:57;;;;;;;5.47;3.33;;;;;;;;;;4961612;29;20383;-72
2023/06/03 04:06:36;;;;;;;4.00;3.00;;;;;;;;;;4961976;29;20371;-73
2023/06/03 04:09:03;;;;;;;4.27;2.97;;;;;;;;;;4962117;29;20419;-73
2023/06/03 04:11:30;;;;;;;5.33;2.90;;;;;;;;;;4961808;29;20853;-73
2023/06/03 04:13:57;;;;;;;7.00;2.90;;;;;;;;;;4962555;29;20444;-73
2023/06/03 04:16:38;;;;;;;4.03;2.73;;;;;;;;;;4961769;29;20446;-73
2023/06/03 04:19:06;;;;;;;4.67;2.37;;;;;;;;;;4960241;28;20412;-73
2023/06/03 04:21:32;;;;;;;5.50;2.90;;;;;;;;;;4961924;29;20424;-74
2023/06/03 04:23:58;;;;;;;5.00;2.60;;;;;;;;;;4944615;29;20383;-73
2023/06/03 04:26:25;;;;;;;5.70;2.20;;;;;;;;;;4961700;29;20387;-73
2023/06/03 04:28:51;;;;;;;4.43;2.47;;;;;;;;;;4961746;29;20409;-72
2023/06/03 04:31:16;;;;;;;4.90;2.20;;;;;;;;;;4960086;29;20395;-73
2023/06/03 04:33:42;;;;;;;4.70;2.03;;;;;;;;;;4961119;29;20453;-73
2023/06/03 04:36:08;;;;;;;3.60;2.50;;;;;;;;;;4961244;29;20462;-73
2023/06/03 04:38:34;;;;;;;6.63;2.20;;;;;;;;;;4961021;29;20404;-73
2023/06/03 04:41:01;;;;;;;6.87;3.50;;;;;;;;;;4961796;29;20417;-73
2023/06/03 04:43:27;;;;;;;6.23;3.60;;;;;;;;;;4961349;29;20472;-73
2023/06/03 04:45:54;;;;;;;6.73;2.70;;;;;;;;;;4961114;29;20412;-72
2023/06/03 04:48:22;;;;;;;5.23;2.40;;;;;;;;;;4961448;29;20426;-72
2023/06/03 04:50:48;;;;;;;4.80;1.93;;;;;;;;;;4960736;29;20446;-72
2023/06/03 04:53:14;;;;;;;5.53;2.27;;;;;;;;;;4961384;29;20415;-73
2023/06/03 04:55:44;;;;;;;2.37;1.70;;;;;;;;;;4961402;29;20484;-73
2023/06/03 04:58:10;;;;;;;10.07;2.80;;;;;;;;;;4961010;29;20773;-72
2023/06/03 05:00:36;;;;;;;4.10;2.67;;;;;;;;;;4961197;29;20394;-73
2023/06/03 05:03:08;;;;;;;4.47;2.47;;;;;;;;;;4961361;29;20748;-72
2023/06/03 05:05:35;;;;;;;3.33;2.20;;;;;;;;;;4961123;29;20421;-74
2023/06/03 05:08:01;;;;;;;2.90;1.70;;;;;;;;;;4960917;29;20387;-72
2023/06/03 05:10:27;;;;;;;3.07;1.90;;;;;;;;;;4961155;29;20421;-73
2023/06/03 05:12:53;;;;;;;4.93;2.40;;;;;;;;;;4960965;29;20390;-73
2023/06/03 05:15:19;;;;;;;2.20;2.00;;;;;;;;;;4960413;29;20395;-73
2023/06/03 05:17:45;;;;;;;7.87;2.50;;;;;;;;;;4960358;29;20399;-73
2023/06/03 05:20:12;;;;;;;4.00;2.17;;;;;;;;;;4960747;29;20424;-73
2023/06/03 05:22:38;;;;;;;7.13;2.90;;;;;;;;;;4960183;29;20471;-73
2023/06/03 05:25:05;;;;;;;5.60;2.27;;;;;;;;;;4960231;29;20474;-73
2023/06/03 05:27:32;;;;;;;4.93;2.50;;;;;;;;;;4960264;29;20498;-73
2023/06/03 05:29:58;;;;;;;4.10;2.10;;;;;;;;;;4960280;28;20799;-72
2023/06/03 05:32:24;;;;;;;4.40;1.73;;;;;;;;;;4960096;29;20386;-73
2023/06/03 05:34:50;;;;;;;4.63;2.43;;;;;;;;;;4960454;29;20386;-72
2023/06/03 05:37:16;;;;;;;3.63;2.23;;;;;;;;;;4960447;29;20868;-73
2023/06/03 05:39:42;;;;;;;6.83;2.30;;;;;;;;;;4960129;29;20782;-73
2023/06/03 05:42:08;;;;;;;2.50;1.80;;;;;;;;;;4960432;29;20416;-73
2023/06/03 05:44:34;;;;;;;8.60;2.17;;;;;;;;;;4960279;29;20405;-73
2023/06/03 05:47:00;;;;;;;4.23;2.10;;;;;;;;;;4960200;29;20856;-73
2023/06/03 05:49:26;;;;;;;5.50;2.20;;;;;;;;;;4959961;29;20415;-73
2023/06/03 05:51:52;;;;;;;6.30;2.27;;;;;;;;;;4960129;29;20426;-73
2023/06/03 05:54:18;;;;;;;2.17;1.80;;;;;;;;;;4960536;29;20391;-73
2023/06/03 05:56:44;;;;;;;2.13;1.93;;;;;;;;;;4959183;29;20458;-73
2023/06/03 05:59:10;;;;;;;3.77;2.57;;;;;;;;;;4959824;29;20417;-73
2023/06/03 06:01:36;;;;;;;2.20;1.87;;;;;;;;;;4960175;29;20438;-73
2023/06/03 06:04:02;;;;;;;4.50;1.50;;;;;;;;;;4960405;29;20392;-74
2023/06/03 06:06:28;;;;;;;4.13;1.90;;;;;;;;;;4960182;29;20402;-73
2023/06/03 06:08:54;;;;;;;3.47;1.83;;;;;;;;;;4959266;29;20441;-73
2023/06/03 06:11:20;;;;;;;3.33;1.83;;;;;;;;;;4959920;29;20431;-74
2023/06/03 06:13:46;;;;;;;2.20;1.80;;;;;;;;;;4958146;28;20406;-73
2023/06/03 06:16:13;;;;;;;2.33;1.70;;;;;;;;;;4960046;29;20468;-73
2023/06/03 06:18:39;;;;;;;4.07;2.00;;;;;;;;;;4959738;29;20446;-73
2023/06/03 06:21:05;;;;;;;3.93;1.73;;;;;;;;;;4960036;29;20413;-73
2023/06/03 06:23:31;;;;;;;1.97;1.30;;;;;;;;;;4959874;29;20397;-73
2023/06/03 06:25:57;;;;;;;3.07;1.67;;;;;;;;;;4959408;29;20817;-73
2023/06/03 06:28:26;;;;;;;3.43;1.40;;;;;;;;;;4959544;29;20405;-73
2023/06/03 06:30:53;;;;;;;4.83;1.70;;;;;;;;;;4959232;29;20424;-74
2023/06/03 06:33:19;;;;;;;1.87;1.77;;;;;;;;;;4959936;29;20408;-73
2023/06/03 06:35:45;;;;;;;2.60;1.57;;;;;;;;;;4959888;29;20968;-73
2023/06/03 06:38:12;;;;;;;2.73;1.50;;;;;;;;;;4959416;29;20408;-73
2023/06/03 06:40:40;;;;;;;8.00;1.67;;;;;;;;;;4959228;29;20406;-73
2023/06/03 06:43:06;;;;;;;2.43;1.43;;;;;;;;;;4958593;29;20407;-74
2023/06/03 06:45:34;;;;;;;2.50;1.70;;;;;;;;;;4959408;29;20391;-73
2023/06/03 06:48:07;;;;;;;2.73;1.53;;;;;;;;;;4958222;29;20436;-82
2023/06/03 06:50:53;;;;;;;3.60;1.70;;;;;;;;;;4956795;29;20507;-82
2023/06/03 06:53:19;;;;;;;2.00;1.50;;;;;;;;;;4955990;29;20416;-82
2023/06/03 06:55:48;;;;;;;3.57;1.37;;;;;;;;;;4956211;29;20471;-82
2023/06/03 06:58:14;;;;;;;3.73;1.40;;;;;;;;;;4956209;29;20417;-83
2023/06/03 07:00:40;;;;;;;8.00;1.47;;;;;;;;;;4939455;29;20408;-82
2023/06/03 07:03:10;;;;;;;2.90;1.50;;;;;;;;;;4956400;29;20749;-83
2023/06/03 07:05:36;;;;;;;3.07;1.70;;;;;;;;;;4957158;29;20422;-82
2023/06/03 07:08:02;;;;;;;2.40;1.43;;;;;;;;;;4957357;29;20755;-83
2023/06/03 07:10:28;;;;;;;2.00;1.47;;;;;;;;;;4958897;29;20748;-84
2023/06/03 07:12:55;;;;;;;3.80;1.27;;;;;;;;;;4957321;29;20382;-83
2023/06/03 07:15:22;;;;;;;3.70;2.10;;;;;;;;;;4955076;29;20425;-84
2023/06/03 07:17:49;;;;;;;2.27;1.47;;;;;;;;;;4956616;29;20383;-84
2023/06/03 07:20:19;;;;;;;4.90;1.63;;;;;;;;;;4956644;29;20447;-84
2023/06/03 07:22:45;;;;;;;6.73;1.40;;;;;;;;;;4956230;29;20412;-84
2023/06/03 07:25:16;;;;;;;1.73;1.20;;;;;;;;;;4957227;29;20409;-83
2023/06/03 07:27:44;;;;;;;2.73;1.57;;;;;;;;;;4955801;29;20505;-84
2023/06/03 07:30:15;;;;;;;3.43;1.37;;;;;;;;;;4957066;29;20432;-84
2023/06/03 07:32:41;;;;;;;4.83;1.53;;;;;;;;;;4957454;29;20395;-84
2023/06/03 07:35:07;;;;;;;2.10;1.23;;;;;;;;;;4956754;29;20811;-84
2023/06/03 07:37:33;;;;;;;6.73;1.60;;;;;;;;;;4956877;29;20985;-84
2023/06/03 07:39:59;;;;;;;2.17;1.40;;;;;;;;;;4957249;29;20779;-82
2023/06/03 07:42:27;;;;;;;4.00;1.60;;;;;;;;;;4956572;29;20413;-83
2023/06/03 07:44:55;;;;;;;1.70;1.47;;;;;;;;;;4958029;29;20835;-84
2023/06/03 07:47:21;;;;;;;3.57;1.30;;;;;;;;;;4956499;29;20927;-84
2023/06/03 07:49:50;;;;;;;2.70;1.47;;;;;;;;;;4956735;29;20430;-84
2023/06/03 07:52:20;;;;;;;6.07;2.50;;;;;;;;;;4957457;29;20818;-84
2023/06/03 07:54:46;;;;;;;4.00;1.50;;;;;;;;;;4960096;29;20555;-84
2023/06/03 07:57:15;;;;;;;6.40;1.97;;;;;;;;;;4960315;29;20518;-84
2023/06/03 07:59:51;;;;;;;6.00;1.30;;;;;;;;;;4959930;29;20431;-83
2023/06/03 08:02:17;;;;;;;7.97;2.27;;;;;;;;;;4959929;29;20408;-84
2023/06/03 08:04:44;;;;;;;4.23;1.50;;;;;;;;;;4960279;29;20495;-84
2023/06/03 08:07:10;;;;;;;6.40;1.80;;;;;;;;;;4960145;29;20405;-84
2023/06/03 08:09:37;;;;;;;3.63;1.37;;;;;;;;;;4960095;29;20460;-83
2023/06/03 08:12:05;;;;;;;2.60;1.37;;;;;;;;;;4959434;29;20816;-84
2023/06/03 08:14:33;;;;;;;4.07;1.30;;;;;;;;;;4959907;29;20913;-85
2023/06/03 08:17:02;;;;;;;6.33;1.77;;;;;;;;;;4959635;29;20460;-82
2023/06/03 08:19:28;;;;;;;5.60;1.50;;;;;;;;;;4962431;29;20476;-84
2023/06/03 08:21:54;;;;;;;4.27;1.50;;;;;;;;;;4955407;29;20756;-82
2023/06/03 08:24:20;;;;;;;3.30;1.40;;;;;;;;;;4958920;29;20431;-84
2023/06/03 08:26:46;;;;;;;2.60;1.33;;;;;;;;;;4959272;29;20901;-80
2023/06/03 08:29:12;;;;;;;5.20;1.20;;;;;;;;;;4958972;29;20416;-78
2023/06/03 08:31:38;;;;;;;1.93;1.20;;;;;;;;;;4960320;29;20440;-78
2023/06/03 08:34:05;;;;;;;1.53;1.43;;;;;;;;;;4959843;29;20419;-78
2023/06/03 08:36:32;;;;;;;3.83;1.50;;;;;;;;;;4959349;29;20464;-78
2023/06/03 08:38:58;;;;;;;2.57;1.50;;;;;;;;;;4959020;29;20413;-78
2023/06/03 08:41:34;;;;;;;2.30;1.80;;;;;;;;;;4961134;29;20900;-78
2023/06/03 08:44:04;;;;;;;8.13;1.80;;;;;;;;;;4958512;29;20415;-78
2023/06/03 08:46:41;;;;;;;2.07;1.67;;;;;;;;;;4959369;29;20409;-78
2023/06/03 08:49:08;;;;;;;7.30;1.70;;;;;;;;;;4960065;29;21067;-77
2023/06/03 08:51:38;;;;;;;2.00;1.50;;;;;;;;;;4958305;29;20543;-79
2023/06/03 08:54:17;;;;;;;5.40;1.90;;;;;;;;;;4959101;29;20404;-78
2023/06/03 08:56:46;;;;;;;1.47;1.33;;;;;;;;;;4958563;29;20467;-77
2023/06/03 08:59:15;;;;;;;2.70;1.30;;;;;;;;;;4957866;29;20428;-79
2023/06/03 09:01:42;;;;;;;4.43;1.93;;;;;;;;;;4959062;29;20405;-78
2023/06/03 09:04:09;;;;;;;2.80;1.50;;;;;;;;;;4957572;28;20420;-80
2023/06/03 09:06:35;;;;;;;3.17;1.70;;;;;;;;;;4957175;29;20955;-78
2023/06/03 09:09:01;;;;;;;2.23;1.50;;;;;;;;;;4958403;29;20471;-79
2023/06/03 09:11:27;;;;;;;4.03;1.77;;;;;;;;;;4958303;29;20431;-76
2023/06/03 09:13:54;;;;;;;2.97;1.57;;;;;;;;;;4957957;29;20397;-76
2023/06/03 09:16:20;;;;;;;1.87;1.40;;;;;;;;;;4958785;29;20464;-76
2023/06/03 09:18:48;;;;;;;4.23;2.07;;;;;;;;;;4958438;29;20416;-75
2023/06/03 09:21:15;;;;;;;3.37;1.57;;;;;;;;;;4957371;29;20488;-74
2023/06/03 09:23:41;;;;;;;5.97;1.90;;;;;;;;;;4956301;29;20427;-74
2023/06/03 09:26:07;;;;;;;2.50;1.40;;;;;;;;;;4958156;29;20428;-73
2023/06/03 09:28:37;;;;;;;2.93;1.70;;;;;;;;;;4939545;29;20416;-75
2023/06/03 09:31:05;;;;;;;2.90;1.60;;;;;;;;;;4957605;29;20408;-74
2023/06/03 09:33:31;;;;;;;4.33;1.70;;;;;;;;;;4957275;29;20405;-74
2023/06/03 09:36:07;;;;;;;6.10;1.87;;;;;;;;;;4956218;29;20496;-74
2023/06/03 09:38:46;;;;;;;2.13;1.33;;;;;;;;;;4957017;29;20424;-76
2023/06/03 09:41:15;;;;;;;4.93;1.40;;;;;;;;;;4956630;29;20432;-74
2023/06/03 09:43:51;;;;;;;3.63;1.53;;;;;;;;;;4956111;29;20869;-77
2023/06/03 09:46:17;;;;;;;10.50;2.23;;;;;;;;;;4956179;29;20919;-76
2023/06/03 09:48:43;;;;;;;2.27;1.60;;;;;;;;;;4956477;29;20409;-75
2023/06/03 09:51:09;;;;;;;9.63;1.83;;;;;;;;;;4955357;29;20460;-77
2023/06/03 09:53:37;;;;;;;6.23;1.87;;;;;;;;;;4956344;29;20412;-77
2023/06/03 09:56:23;;;;;;;3.87;1.60;;;;;;;;;;4956522;29;20464;-76
2023/06/03 09:58:52;;;;;;;4.97;2.13;;;;;;;;;;4955793;29;20471;-77
2023/06/03 10:01:28;;;;;;;5.67;1.77;;;;;;;;;;4956282;29;20508;-77
2023/06/03 10:03:58;;;;;;;2.30;2.10;;;;;;;;;;4955198;29;20424;-77
2023/06/03 10:06:24;;;;;;;2.50;2.10;;;;;;;;;;4956146;29;20423;-77
2023/06/03 10:08:50;;;;;;;3.07;2.03;;;;;;;;;;4955887;29;20423;-77
2023/06/03 10:11:16;;;;;;;3.30;1.87;;;;;;;;;;4955291;29;20515;-76
2023/06/03 10:13:45;;;;;;;3.70;2.00;;;;;;;;;;4956231;29;20495;-76
2023/06/03 10:16:11;;;;;;;3.33;2.00;;;;;;;;;;4955020;28;20492;-76
2023/06/03 10:18:38;;;;;;;4.13;2.37;;;;;;;;;;4955093;29;20471;-76
2023/06/03 10:21:08;;;;;;;5.77;1.80;;;;;;;;;;4955473;29;20439;-75
2023/06/03 10:23:37;;;;;;;3.00;1.77;;;;;;;;;;4954948;29;20424;-76
2023/06/03 10:26:03;;;;;;;3.30;1.80;;;;;;;;;;4951774;29;20432;-76
2023/06/03 10:28:31;;;;;;;2.73;1.90;;;;;;;;;;4954605;29;20987;-75
2023/06/03 10:30:57;;;;;;;3.53;1.53;;;;;;;;;;4955468;29;20405;-76
2023/06/03 10:33:24;;;;;;;2.43;1.90;;;;;;;;;;4955133;29;20979;-76
2023/06/03 10:35:50;;;;;;;6.20;2.07;;;;;;;;;;4955887;29;20491;-76
2023/06/03 10:38:17;;;;;;;3.87;2.00;;;;;;;;;;4955156;29;20409;-76
2023/06/03 10:40:43;;;;;;;2.80;2.30;;;;;;;;;;4955149;29;20754;-79
2023/06/03 10:43:10;;;;;;;3.50;2.37;;;;;;;;;;4955303;29;20428;-75
2023/06/03 10:45:36;;;;;;;2.77;1.77;;;;;;;;;;4955761;29;20886;-74
2023/06/03 10:48:11;;;;;;;4.47;2.20;;;;;;;;;;4954381;29;20484;-75
2023/06/03 10:50:53;;;;;;;3.93;2.10;;;;;;;;;;4955061;29;20467;-75
2023/06/03 10:53:38;;;;;;;3.40;1.60;;;;;;;;;;4955630;29;20499;-75
2023/06/03 10:56:13;;;;;;;43.80;4.70;;;;;;;;;;4954375;29;20455;-75
2023/06/03 10:58:41;;;;;;;4.13;1.90;;;;;;;;;;4955354;29;20471;-75
2023/06/03 11:01:07;;;;;;;2.27;1.83;;;;;;;;;;4954988;29;20408;-75
2023/06/03 11:03:34;;;;;;;6.10;2.20;;;;;;;;;;4954211;29;20412;-75
2023/06/03 11:06:19;;;;;;;3.47;2.40;;;;;;;;;;4954919;29;20491;-75
2023/06/03 11:09:05;;;;;;;2.17;1.97;;;;;;;;;;4955033;29;20400;-75
2023/06/03 11:11:40;;;;;;;3.27;2.40;;;;;;;;;;4953960;29;20958;-75
2023/06/03 11:14:07;;;;;;;3.10;2.03;;;;;;;;;;4955113;29;20959;-75
2023/06/03 11:16:51;;;;;;;4.07;2.07;;;;;;;;;;4955340;29;20506;-76
2023/06/03 11:19:35;;;;;;;2.70;1.73;;;;;;;;;;4954491;29;20495;-75
2023/06/03 11:22:04;;;;;;;2.30;1.80;;;;;;;;;;4955130;29;20420;-75
2023/06/03 11:24:42;;;;;;;2.57;2.00;;;;;;;;;;4954281;29;20478;-75
2023/06/03 11:27:14;;;;;;;3.50;1.87;;;;;;;;;;4952857;28;20433;-74
2023/06/03 11:29:47;;;;;;;3.90;1.93;;;;;;;;;;4958584;29;20408;-74
2023/06/03 11:32:27;;;;;;;4.07;2.10;;;;;;;;;;4958518;29;20408;-75
2023/06/03 11:34:59;;;;;;;2.43;2.07;;;;;;;;;;4958138;29;20463;-74
2023/06/03 11:37:41;;;;;;;3.07;2.00;;;;;;;;;;4941412;29;20555;-75
2023/06/03 11:40:14;;;;;;;3.17;2.10;;;;;;;;;;4957351;29;20424;-74
2023/06/03 11:42:46;;;;;;;5.13;2.30;;;;;;;;;;4958131;29;20418;-75
2023/06/03 11:45:15;;;;;;;2.40;1.97;;;;;;;;;;4958040;29;20904;-74
2023/06/03 11:47:48;;;;;;;2.70;2.10;;;;;;;;;;4957333;29;20515;-74
2023/06/03 11:50:15;;;;;;;4.57;2.17;;;;;;;;;;4957673;29;20539;-75
2023/06/03 11:52:41;;;;;;;2.60;1.93;;;;;;;;;;4957914;29;20409;-74
2023/06/03 11:55:07;;;;;;;4.50;2.07;;;;;;;;;;4956834;29;20412;-73
2023/06/03 11:57:33;;;;;;;6.87;1.93;;;;;;;;;;4957497;29;20468;-73
2023/06/03 12:00:08;;;;;;;2.50;1.90;;;;;;;;;;4957399;29;20905;-73
2023/06/03 12:02:41;;;;;;;6.70;2.00;;;;;;;;;;4957086;29;20511;-72
2023/06/03 12:05:08;;;;;;;3.60;2.20;;;;;;;;;;4957467;29;20452;-73
2023/06/03 12:07:34;;;;;;;3.43;1.80;;;;;;;;;;4958000;29;20926;-73
2023/06/03 12:10:00;;;;;;;2.30;1.80;;;;;;;;;;4956434;29;20471;-73
2023/06/03 12:12:26;;;;;;;3.77;1.90;;;;;;;;;;4957716;29;20419;-73
2023/06/03 12:14:52;;;;;;;2.50;1.47;;;;;;;;;;4957202;29;20416;-74
2023/06/03 12:17:21;;;;;;;3.20;1.80;;;;;;;;;;4956535;29;20468;-73
2023/06/03 12:19:48;;;;;;;3.33;2.00;;;;;;;;;;4957175;29;20523;-73
2023/06/03 12:22:14;;;;;;;7.20;2.50;;;;;;;;;;4939739;29;20747;-74
2023/06/03 12:24:42;;;;;;;3.20;1.90;;;;;;;;;;4956152;29;20770;-74
2023/06/03 12:27:12;;;;;;;3.77;1.60;;;;;;;;;;4955377;29;20770;-74
2023/06/03 12:29:41;;;;;;;3.23;1.80;;;;;;;;;;4940223;29;20826;-73
2023/06/03 12:32:08;;;;;;;3.07;1.63;;;;;;;;;;4956579;29;20452;-73
2023/06/03 12:34:34;;;;;;;7.40;2.20;;;;;;;;;;4957209;29;20916;-73
2023/06/03 12:37:01;;;;;;;3.57;1.87;;;;;;;;;;4956863;29;20865;-73
2023/06/03 12:39:46;;;;;;;3.50;2.50;;;;;;;;;;4954854;28;20524;-73
2023/06/03 12:42:12;;;;;;;4.10;1.73;;;;;;;;;;4956859;29;20470;-73
2023/06/03 12:44:46;;;;;;;5.13;2.30;;;;;;;;;;4957225;29;20433;-73
2023/06/03 12:47:13;;;;;;;3.70;2.13;;;;;;;;;;4956189;29;20439;-73
2023/06/03 12:49:39;;;;;;;3.00;1.73;;;;;;;;;;4956623;29;20428;-73
2023/06/03 12:52:15;;;;;;;2.70;1.60;;;;;;;;;;4956503;29;20444;-73
2023/06/03 12:54:41;;;;;;;4.70;1.90;;;;;;;;;;4955964;29;20428;-73
2023/06/03 12:57:09;;;;;;;4.10;1.93;;;;;;;;;;4956251;29;20483;-73
2023/06/03 12:59:36;;;;;;;2.80;1.53;;;;;;;;;;4956863;29;20439;-73
2023/06/03 13:02:03;;;;;;;8.53;1.93;;;;;;;;;;4955813;29;20415;-74
2023/06/03 13:04:29;;;;;;;4.17;1.90;;;;;;;;;;4957022;29;20913;-73
2023/06/03 13:06:55;;;;;;;3.43;1.70;;;;;;;;;;4956470;29;20908;-74
2023/06/03 13:09:21;;;;;;;3.50;1.60;;;;;;;;;;4956199;29;20423;-72
2023/06/03 13:11:47;;;;;;;2.43;1.63;;;;;;;;;;4955421;29;20920;-73
2023/06/03 13:14:13;;;;;;;4.63;2.00;;;;;;;;;;4956123;29;20424;-73
2023/06/03 13:16:39;;;;;;;2.80;1.90;;;;;;;;;;4955522;29;20475;-75
2023/06/03 13:19:05;;;;;;;2.80;1.40;;;;;;;;;;4956772;29;20408;-76
2023/06/03 13:21:31;;;;;;;4.57;1.70;;;;;;;;;;4955011;29;20757;-74
2023/06/03 13:23:57;;;;;;;2.30;1.60;;;;;;;;;;4938591;29;20415;-75
2023/06/03 13:26:24;;;;;;;3.63;1.70;;;;;;;;;;4955721;29;20416;-75
2023/06/03 13:28:50;;;;;;;5.07;1.53;;;;;;;;;;4955600;29;20429;-74
2023/06/03 13:31:16;;;;;;;5.23;1.77;;;;;;;;;;4955409;29;20417;-75
2023/06/03 13:33:42;;;;;;;6.50;1.67;;;;;;;;;;4956463;29;20429;-75
2023/06/03 13:36:08;;;;;;;2.93;1.80;;;;;;;;;;4956160;29;20466;-74
2023/06/03 13:38:35;;;;;;;2.50;1.57;;;;;;;;;;4955902;29;20471;-75
2023/06/03 13:41:01;;;;;;;3.80;1.77;;;;;;;;;;4956507;29;20471;-74
2023/06/03 13:43:27;;;;;;;1.50;1.40;;;;;;;;;;4956039;29;20516;-74
2023/06/03 13:45:53;;;;;;;5.40;1.83;;;;;;;;;;4955282;29;20808;-74
2023/06/03 13:48:19;;;;;;;3.40;1.70;;;;;;;;;;4955670;29;20468;-74
2023/06/03 13:50:45;;;;;;;3.70;1.63;;;;;;;;;;4955391;28;20468;-74
2023/06/03 13:53:11;;;;;;;2.53;1.80;;;;;;;;;;4954673;29;20768;-75
2023/06/03 13:55:37;;;;;;;6.00;1.83;;;;;;;;;;4955869;29;20769;-74
2023/06/03 13:58:03;;;;;;;3.17;1.73;;;;;;;;;;4956019;29;20428;-74
2023/06/03 14:00:29;;;;;;;2.43;1.60;;;;;;;;;;4955420;29;20420;-76
2023/06/03 14:02:55;;;;;;;2.93;1.60;;;;;;;;;;4955576;29;20476;-74
2023/06/03 14:05:21;;;;;;;4.77;1.70;;;;;;;;;;4955618;29;20408;-75
2023/06/03 14:07:48;;;;;;;7.33;1.90;;;;;;;;;;4955939;29;20405;-75
2023/06/03 14:10:14;;;;;;;2.93;1.43;;;;;;;;;;4954690;29;20475;-75
2023/06/03 14:12:40;;;;;;;2.40;1.50;;;;;;;;;;4938679;29;20556;-74
2023/06/03 14:15:06;;;;;;;3.43;1.47;;;;;;;;;;4955337;29;20413;-74
2023/06/03 14:17:32;;;;;;;3.33;1.63;;;;;;;;;;4955064;29;20830;-74
2023/06/03 14:19:58;;;;;;;4.43;1.47;;;;;;;;;;4938457;29;20513;-76
2023/06/03 14:22:24;;;;;;;2.07;1.53;;;;;;;;;;4955379;29;20448;-74
2023/06/03 14:24:50;;;;;;;7.93;2.07;;;;;;;;;;4954653;29;20775;-74
2023/06/03 14:27:18;;;;;;;1.50;1.40;;;;;;;;;;4954705;29;20424;-74
2023/06/03 14:29:44;;;;;;;2.20;1.50;;;;;;;;;;4954028;29;20436;-74
2023/06/03 14:32:10;;;;;;;2.93;1.87;;;;;;;;;;4937378;29;20766;-75
2023/06/03 14:34:36;;;;;;;3.30;1.50;;;;;;;;;;4955525;29;20409;-75
2023/06/03 14:37:02;;;;;;;3.03;1.53;;;;;;;;;;4955485;29;20836;-74
2023/06/03 14:39:28;;;;;;;4.33;1.80;;;;;;;;;;4936922;29;20884;-75
2023/06/03 14:41:54;;;;;;;1.60;1.20;;;;;;;;;;4955231;29;20421;-75
2023/06/03 14:44:21;;;;;;;4.13;1.80;;;;;;;;;;4955070;29;20424;-75
2023/06/03 14:46:47;;;;;;;2.50;1.57;;;;;;;;;;4954403;29;20416;-74
2023/06/03 14:49:13;;;;;;;3.27;1.70;;;;;;;;;;4955161;29;20417;-75